sensor_id;sensor_type;location;lat;lon;timestamp;pressure;altitude;pressure_sealevel;temperature;humidity
6144;BME280;3103;49.492;8.474;2023-04-06T00:00:09;100823.06;;;6.68;52.81
6144;BME280;3103;49.492;8.474;2023-04-06T00:02:36;100827.19;;;6.84;53.06
6144;BME280;3103;49.492;8.474;2023-04-06T00:05:03;100821.84;;;6.91;51.75
6144;BME280;3103;49.492;8.474;2023-04-06T00:07:30;100823.91;;;6.95;52.82
6144;BME280;3103;49.492;8.474;2023-04-06T00:09:57;100822.84;;;6.90;54.60
6144;BME280;3103;49.492;8.474;2023-04-06T00:12:23;100824.91;;;6.68;55.38
6144;BME280;3103;49.492;8.474;2023-04-06T00:14:50;100826.75;;;6.87;54.58
6144;BME280;3103;49.492;8.474;2023-04-06T00:17:17;100823.69;;;6.77;55.17
6144;BME280;3103;49.492;8.474;2023-04-06T00:19:44;100815.66;;;6.70;55.47
6144;BME280;3103;49.492;8.474;2023-04-06T00:22:10;100823.63;;;6.37;55.65
6144;BME280;3103;49.492;8.474;2023-04-06T00:24:37;100823.06;;;6.48;54.46
6144;BME280;3103;49.492;8.474;2023-04-06T00:27:04;100817.69;;;6.42;54.26
6144;BME280;3103;49.492;8.474;2023-04-06T00:29:31;100810.44;;;6.16;56.33
6144;BME280;3103;49.492;8.474;2023-04-06T00:31:57;100811.53;;;6.41;53.67
6144;BME280;3103;49.492;8.474;2023-04-06T00:34:24;100808.88;;;6.48;50.54
6144;BME280;3103;49.492;8.474;2023-04-06T00:36:51;100805.91;;;6.16;51.27
6144;BME280;3103;49.492;8.474;2023-04-06T00:39:17;100807.34;;;6.19;51.22
6144;BME280;3103;49.492;8.474;2023-04-06T00:41:50;100806.78;;;6.23;53.43
6144;BME280;3103;49.492;8.474;2023-04-06T00:44:18;100813.56;;;6.33;52.30
6144;BME280;3103;49.492;8.474;2023-04-06T00:46:45;100807.38;;;6.25;51.79
6144;BME280;3103;49.492;8.474;2023-04-06T00:49:12;100804.53;;;6.47;50.87
6144;BME280;3103;49.492;8.474;2023-04-06T00:51:39;100805.19;;;6.62;50.55
6144;BME280;3103;49.492;8.474;2023-04-06T00:54:06;100798.16;;;6.21;49.34
6144;BME280;3103;49.492;8.474;2023-04-06T00:56:34;100799.84;;;5.81;50.24
6144;BME280;3103;49.492;8.474;2023-04-06T00:59:02;100791.94;;;5.60;50.45
6144;BME280;3103;49.492;8.474;2023-04-06T01:01:29;100790.34;;;5.72;50.50
6144;BME280;3103;49.492;8.474;2023-04-06T01:04:03;100790.16;;;5.74;50.23
6144;BME280;3103;49.492;8.474;2023-04-06T01:06:37;100780.03;;;5.56;50.81
6144;BME280;3103;49.492;8.474;2023-04-06T01:09:03;100784.91;;;5.46;51.75
6144;BME280;3103;49.492;8.474;2023-04-06T01:11:30;100785.44;;;5.34;52.54
6144;BME280;3103;49.492;8.474;2023-04-06T01:13:58;100784.41;;;5.29;53.62
6144;BME280;3103;49.492;8.474;2023-04-06T01:16:41;100777.22;;;5.29;53.88
6144;BME280;3103;49.492;8.474;2023-04-06T01:19:12;100768.75;;;5.19;55.51
6144;BME280;3103;49.492;8.474;2023-04-06T01:21:51;100779.63;;;5.59;54.16
6144;BME280;3103;49.492;8.474;2023-04-06T01:24:28;100774.72;;;5.56;54.52
6144;BME280;3103;49.492;8.474;2023-04-06T01:27:02;100767.13;;;5.53;54.70
6144;BME280;3103;49.492;8.474;2023-04-06T01:29:51;100769.50;;;5.41;54.60
6144;BME280;3103;49.492;8.474;2023-04-06T01:32:40;100770.47;;;5.27;54.81
6144;BME280;3103;49.492;8.474;2023-04-06T01:35:09;100770.03;;;5.23;54.69
6144;BME280;3103;49.492;8.474;2023-04-06T01:37:44;100768.22;;;5.30;54.49
6144;BME280;3103;49.492;8.474;2023-04-06T01:40:16;100763.63;;;5.59;53.73
6144;BME280;3103;49.492;8.474;2023-04-06T01:42:47;100759.22;;;5.79;55.89
6144;BME280;3103;49.492;8.474;2023-04-06T01:45:21;100760.41;;;5.70;54.34
6144;BME280;3103;49.492;8.474;2023-04-06T01:47:50;100762.41;;;5.61;54.78
6144;BME280;3103;49.492;8.474;2023-04-06T01:50:17;100759.47;;;5.36;56.13
6144;BME280;3103;49.492;8.474;2023-04-06T01:52:45;100759.47;;;5.43;56.38
6144;BME280;3103;49.492;8.474;2023-04-06T01:55:13;100751.19;;;5.25;57.18
6144;BME280;3103;49.492;8.474;2023-04-06T01:58:05;100750.81;;;5.34;57.79
6144;BME280;3103;49.492;8.474;2023-04-06T02:00:36;100750.50;;;5.51;57.30
6144;BME280;3103;49.492;8.474;2023-04-06T02:03:03;100752.78;;;5.19;58.74
6144;BME280;3103;49.492;8.474;2023-04-06T02:05:32;100750.44;;;5.03;59.22
6144;BME280;3103;49.492;8.474;2023-04-06T02:08:14;100751.75;;;5.14;58.88
6144;BME280;3103;49.492;8.474;2023-04-06T02:10:41;100757.47;;;5.17;59.04
6144;BME280;3103;49.492;8.474;2023-04-06T02:13:17;100761.09;;;5.03;58.84
6144;BME280;3103;49.492;8.474;2023-04-06T02:15:48;100768.25;;;4.74;60.12
6144;BME280;3103;49.492;8.474;2023-04-06T02:18:15;100757.91;;;4.58;61.19
6144;BME280;3103;49.492;8.474;2023-04-06T02:20:44;100764.94;;;4.94;60.92
6144;BME280;3103;49.492;8.474;2023-04-06T02:23:12;100760.69;;;4.78;60.66
6144;BME280;3103;49.492;8.474;2023-04-06T02:25:39;100752.19;;;4.61;61.43
6144;BME280;3103;49.492;8.474;2023-04-06T02:28:07;100754.56;;;4.77;61.05
6144;BME280;3103;49.492;8.474;2023-04-06T02:30:34;100759.97;;;4.91;60.64
6144;BME280;3103;49.492;8.474;2023-04-06T02:33:02;100744.25;;;4.96;59.74
6144;BME280;3103;49.492;8.474;2023-04-06T02:35:37;100741.28;;;5.12;59.28
6144;BME280;3103;49.492;8.474;2023-04-06T02:38:03;100748.81;;;4.74;60.16
6144;BME280;3103;49.492;8.474;2023-04-06T02:40:30;100750.81;;;4.44;60.43
6144;BME280;3103;49.492;8.474;2023-04-06T02:43:03;100747.66;;;4.34;60.32
6144;BME280;3103;49.492;8.474;2023-04-06T02:45:31;100751.16;;;4.13;60.53
6144;BME280;3103;49.492;8.474;2023-04-06T02:48:00;100758.03;;;4.07;60.46
6144;BME280;3103;49.492;8.474;2023-04-06T02:50:28;100750.38;;;4.19;60.55
6144;BME280;3103;49.492;8.474;2023-04-06T02:53:00;100742.00;;;4.43;59.85
6144;BME280;3103;49.492;8.474;2023-04-06T02:55:27;100747.97;;;4.73;58.59
6144;BME280;3103;49.492;8.474;2023-04-06T02:57:53;100737.09;;;4.40;59.54
6144;BME280;3103;49.492;8.474;2023-04-06T03:00:26;100738.53;;;4.22;60.04
6144;BME280;3103;49.492;8.474;2023-04-06T03:02:52;100742.03;;;4.01;60.67
6144;BME280;3103;49.492;8.474;2023-04-06T03:05:20;100731.38;;;4.01;60.25
6144;BME280;3103;49.492;8.474;2023-04-06T03:07:47;100735.75;;;3.87;60.91
6144;BME280;3103;49.492;8.474;2023-04-06T03:10:23;100747.28;;;3.94;60.89
6144;BME280;3103;49.492;8.474;2023-04-06T03:12:50;100738.84;;;3.91;60.38
6144;BME280;3103;49.492;8.474;2023-04-06T03:15:21;100743.09;;;3.85;61.16
6144;BME280;3103;49.492;8.474;2023-04-06T03:17:53;100741.72;;;3.74;61.15
6144;BME280;3103;49.492;8.474;2023-04-06T03:20:34;100736.41;;;3.74;61.41
6144;BME280;3103;49.492;8.474;2023-04-06T03:23:01;100741.50;;;3.91;60.44
6144;BME280;3103;49.492;8.474;2023-04-06T03:25:34;100745.38;;;3.88;60.38
6144;BME280;3103;49.492;8.474;2023-04-06T03:28:03;100742.81;;;3.80;60.91
6144;BME280;3103;49.492;8.474;2023-04-06T03:30:34;100744.28;;;3.82;60.63
6144;BME280;3103;49.492;8.474;2023-04-06T03:33:01;100744.44;;;4.17;60.22
6144;BME280;3103;49.492;8.474;2023-04-06T03:35:32;100748.03;;;4.31;58.87
6144;BME280;3103;49.492;8.474;2023-04-06T03:37:59;100750.47;;;4.26;58.64
6144;BME280;3103;49.492;8.474;2023-04-06T03:40:27;100750.69;;;4.31;58.60
6144;BME280;3103;49.492;8.474;2023-04-06T03:42:53;100754.88;;;4.40;58.32
6144;BME280;3103;49.492;8.474;2023-04-06T03:45:20;100756.88;;;4.59;58.01
6144;BME280;3103;49.492;8.474;2023-04-06T03:47:49;100756.06;;;4.59;58.55
6144;BME280;3103;49.492;8.474;2023-04-06T03:50:17;100752.72;;;4.78;56.95
6144;BME280;3103;49.492;8.474;2023-04-06T03:52:44;100752.88;;;4.70;56.80
6144;BME280;3103;49.492;8.474;2023-04-06T03:55:11;100758.13;;;4.63;56.92
6144;BME280;3103;49.492;8.474;2023-04-06T03:57:38;100765.84;;;4.80;56.38
6144;BME280;3103;49.492;8.474;2023-04-06T04:00:05;100763.72;;;4.68;57.26
6144;BME280;3103;49.492;8.474;2023-04-06T04:02:38;100762.53;;;4.50;58.34
6144;BME280;3103;49.492;8.474;2023-04-06T04:05:06;100770.22;;;4.38;58.22
6144;BME280;3103;49.492;8.474;2023-04-06T04:07:32;100764.81;;;4.53;58.58
6144;BME280;3103;49.492;8.474;2023-04-06T04:09:59;100761.00;;;4.62;56.65
6144;BME280;3103;49.492;8.474;2023-04-06T04:12:26;100760.56;;;4.58;56.28
6144;BME280;3103;49.492;8.474;2023-04-06T04:14:53;100767.75;;;4.64;55.71
6144;BME280;3103;49.492;8.474;2023-04-06T04:17:21;100766.91;;;4.57;54.89
6144;BME280;3103;49.492;8.474;2023-04-06T04:19:48;100768.66;;;4.71;54.60
6144;BME280;3103;49.492;8.474;2023-04-06T04:22:15;100772.53;;;4.69;54.50
6144;BME280;3103;49.492;8.474;2023-04-06T04:24:43;100771.28;;;4.65;54.58
6144;BME280;3103;49.492;8.474;2023-04-06T04:27:09;100773.44;;;4.55;54.95
6144;BME280;3103;49.492;8.474;2023-04-06T04:29:37;100775.81;;;4.50;55.26
6144;BME280;3103;49.492;8.474;2023-04-06T04:32:08;100775.94;;;4.63;54.84
6144;BME280;3103;49.492;8.474;2023-04-06T04:34:35;100775.19;;;4.69;55.07
6144;BME280;3103;49.492;8.474;2023-04-06T04:37:04;100778.41;;;4.64;54.94
6144;BME280;3103;49.492;8.474;2023-04-06T04:39:42;100775.91;;;4.56;55.91
6144;BME280;3103;49.492;8.474;2023-04-06T04:42:10;100775.28;;;4.54;54.97
6144;BME280;3103;49.492;8.474;2023-04-06T04:44:42;100773.69;;;4.38;55.43
6144;BME280;3103;49.492;8.474;2023-04-06T04:47:10;100780.72;;;4.46;55.29
6144;BME280;3103;49.492;8.474;2023-04-06T04:49:42;100777.34;;;4.59;54.56
6144;BME280;3103;49.492;8.474;2023-04-06T04:52:11;100770.97;;;4.53;55.30
6144;BME280;3103;49.492;8.474;2023-04-06T04:54:49;100782.34;;;4.47;54.88
6144;BME280;3103;49.492;8.474;2023-04-06T04:57:23;100782.44;;;4.32;54.92
6144;BME280;3103;49.492;8.474;2023-04-06T04:59:50;100777.78;;;4.20;55.17
6144;BME280;3103;49.492;8.474;2023-04-06T05:02:18;100781.91;;;4.22;55.59
6144;BME280;3103;49.492;8.474;2023-04-06T05:05:11;100791.91;;;4.20;55.51
6144;BME280;3103;49.492;8.474;2023-04-06T05:07:39;100781.56;;;4.25;55.37
6144;BME280;3103;49.492;8.474;2023-04-06T05:10:10;100790.69;;;4.37;55.00
6144;BME280;3103;49.492;8.474;2023-04-06T05:12:48;100790.97;;;4.49;54.80
6144;BME280;3103;49.492;8.474;2023-04-06T05:15:14;100793.38;;;4.65;55.36
6144;BME280;3103;49.492;8.474;2023-04-06T05:17:41;100796.78;;;4.81;54.62
6144;BME280;3103;49.492;8.474;2023-04-06T05:20:12;100799.00;;;5.05;53.94
6144;BME280;3103;49.492;8.474;2023-04-06T05:22:45;100787.81;;;4.88;53.16
6144;BME280;3103;49.492;8.474;2023-04-06T05:25:13;100792.72;;;5.13;53.73
6144;BME280;3103;49.492;8.474;2023-04-06T05:27:40;100792.75;;;5.19;52.67
6144;BME280;3103;49.492;8.474;2023-04-06T05:30:19;100787.16;;;5.07;52.80
6144;BME280;3103;49.492;8.474;2023-04-06T05:32:47;100787.78;;;4.82;53.45
6144;BME280;3103;49.492;8.474;2023-04-06T05:35:15;100797.16;;;4.77;54.06
6144;BME280;3103;49.492;8.474;2023-04-06T05:37:46;100794.25;;;4.72;54.26
6144;BME280;3103;49.492;8.474;2023-04-06T05:40:13;100802.34;;;4.86;54.00
6144;BME280;3103;49.492;8.474;2023-04-06T05:42:41;100804.97;;;5.07;53.90
6144;BME280;3103;49.492;8.474;2023-04-06T05:45:11;100809.38;;;5.21;53.76
6144;BME280;3103;49.492;8.474;2023-04-06T05:47:39;100802.50;;;5.40;53.51
6144;BME280;3103;49.492;8.474;2023-04-06T05:50:18;100807.22;;;5.38;53.87
6144;BME280;3103;49.492;8.474;2023-04-06T05:52:44;100801.88;;;5.38;53.25
6144;BME280;3103;49.492;8.474;2023-04-06T05:55:15;100813.47;;;5.58;53.03
6144;BME280;3103;49.492;8.474;2023-04-06T05:57:46;100810.31;;;5.42;52.79
6144;BME280;3103;49.492;8.474;2023-04-06T06:00:16;100809.97;;;5.51;52.54
6144;BME280;3103;49.492;8.474;2023-04-06T06:02:52;100812.09;;;5.69;52.21
6144;BME280;3103;49.492;8.474;2023-04-06T06:05:23;100810.91;;;5.78;52.38
6144;BME280;3103;49.492;8.474;2023-04-06T06:07:50;100804.34;;;5.81;51.53
6144;BME280;3103;49.492;8.474;2023-04-06T06:10:16;100816.94;;;5.93;51.12
6144;BME280;3103;49.492;8.474;2023-04-06T06:12:43;100811.16;;;5.90;51.08
6144;BME280;3103;49.492;8.474;2023-04-06T06:15:11;100818.25;;;5.70;51.92
6144;BME280;3103;49.492;8.474;2023-04-06T06:17:42;100812.00;;;5.90;51.76
6144;BME280;3103;49.492;8.474;2023-04-06T06:20:10;100804.34;;;5.81;52.07
6144;BME280;3103;49.492;8.474;2023-04-06T06:22:37;100806.50;;;5.57;52.22
6144;BME280;3103;49.492;8.474;2023-04-06T06:25:06;100806.91;;;5.95;51.64
6144;BME280;3103;49.492;8.474;2023-04-06T06:27:33;100799.19;;;5.73;50.87
6144;BME280;3103;49.492;8.474;2023-04-06T06:29:59;100798.66;;;5.90;50.74
6144;BME280;3103;49.492;8.474;2023-04-06T06:32:30;100806.38;;;6.20;49.41
6144;BME280;3103;49.492;8.474;2023-04-06T06:34:58;100809.47;;;6.37;48.55
6144;BME280;3103;49.492;8.474;2023-04-06T06:37:24;100800.84;;;6.35;48.69
6144;BME280;3103;49.492;8.474;2023-04-06T06:39:51;100800.03;;;6.47;47.86
6144;BME280;3103;49.492;8.474;2023-04-06T06:42:19;100803.13;;;6.58;48.45
6144;BME280;3103;49.492;8.474;2023-04-06T06:45:13;100802.09;;;6.59;47.83
6144;BME280;3103;49.492;8.474;2023-04-06T06:47:40;100808.91;;;6.81;48.18
6144;BME280;3103;49.492;8.474;2023-04-06T06:50:09;100811.56;;;7.07;46.43
6144;BME280;3103;49.492;8.474;2023-04-06T06:52:36;100806.19;;;7.21;46.23
6144;BME280;3103;49.492;8.474;2023-04-06T06:55:03;100803.91;;;7.31;46.76
6144;BME280;3103;49.492;8.474;2023-04-06T06:57:30;100818.53;;;7.08;45.81
6144;BME280;3103;49.492;8.474;2023-04-06T06:59:57;100813.63;;;6.79;46.73
6144;BME280;3103;49.492;8.474;2023-04-06T07:02:23;100816.25;;;7.25;45.72
6144;BME280;3103;49.492;8.474;2023-04-06T07:04:50;100814.97;;;7.54;44.39
6144;BME280;3103;49.492;8.474;2023-04-06T07:07:17;100809.00;;;7.52;44.12
6144;BME280;3103;49.492;8.474;2023-04-06T07:09:44;100812.66;;;7.64;44.24
6144;BME280;3103;49.492;8.474;2023-04-06T07:12:10;100813.41;;;7.85;43.51
6144;BME280;3103;49.492;8.474;2023-04-06T07:14:37;100810.00;;;8.09;43.50
6144;BME280;3103;49.492;8.474;2023-04-06T07:17:04;100813.59;;;8.35;42.68
6144;BME280;3103;49.492;8.474;2023-04-06T07:19:30;100810.56;;;8.56;42.92
6144;BME280;3103;49.492;8.474;2023-04-06T07:21:58;100803.19;;;8.13;42.74
6144;BME280;3103;49.492;8.474;2023-04-06T07:24:25;100812.56;;;8.36;43.62
6144;BME280;3103;49.492;8.474;2023-04-06T07:26:52;100811.75;;;8.35;43.07
6144;BME280;3103;49.492;8.474;2023-04-06T07:29:19;100815.66;;;8.32;43.73
6144;BME280;3103;49.492;8.474;2023-04-06T07:31:46;100812.56;;;8.67;42.63
6144;BME280;3103;49.492;8.474;2023-04-06T07:34:15;100808.97;;;8.10;43.16
6144;BME280;3103;49.492;8.474;2023-04-06T07:36:41;100812.03;;;7.76;44.28
6144;BME280;3103;49.492;8.474;2023-04-06T07:39:08;100817.59;;;7.67;44.20
6144;BME280;3103;49.492;8.474;2023-04-06T07:41:35;100818.22;;;7.63;45.97
6144;BME280;3103;49.492;8.474;2023-04-06T07:44:03;100817.19;;;8.53;42.78
6144;BME280;3103;49.492;8.474;2023-04-06T07:46:30;100822.03;;;8.31;43.08
6144;BME280;3103;49.492;8.474;2023-04-06T07:49:00;100822.41;;;8.73;42.23
6144;BME280;3103;49.492;8.474;2023-04-06T07:51:35;100823.91;;;9.12;41.47
6144;BME280;3103;49.492;8.474;2023-04-06T07:54:03;100813.66;;;9.09;42.38
6144;BME280;3103;49.492;8.474;2023-04-06T07:56:29;100814.63;;;9.15;41.36
6144;BME280;3103;49.492;8.474;2023-04-06T07:58:56;100817.44;;;9.63;40.92
6144;BME280;3103;49.492;8.474;2023-04-06T08:01:24;100813.03;;;9.87;39.43
6144;BME280;3103;49.492;8.474;2023-04-06T08:03:51;100814.19;;;9.18;41.05
6144;BME280;3103;49.492;8.474;2023-04-06T08:06:18;100812.19;;;9.68;40.99
6144;BME280;3103;49.492;8.474;2023-04-06T08:08:44;100815.31;;;10.02;40.74
6144;BME280;3103;49.492;8.474;2023-04-06T08:11:11;100820.03;;;9.51;40.55
6144;BME280;3103;49.492;8.474;2023-04-06T08:13:38;100806.59;;;8.33;44.13
6144;BME280;3103;49.492;8.474;2023-04-06T08:16:05;100810.66;;;8.43;44.42
6144;BME280;3103;49.492;8.474;2023-04-06T08:18:31;100815.75;;;9.26;43.12
6144;BME280;3103;49.492;8.474;2023-04-06T08:20:58;100820.34;;;9.62;42.21
6144;BME280;3103;49.492;8.474;2023-04-06T08:23:25;100808.47;;;9.88;41.92
6144;BME280;3103;49.492;8.474;2023-04-06T08:25:51;100820.38;;;10.28;41.29
6144;BME280;3103;49.492;8.474;2023-04-06T08:28:20;100817.66;;;9.62;43.25
6144;BME280;3103;49.492;8.474;2023-04-06T08:30:47;100819.31;;;9.01;42.61
6144;BME280;3103;49.492;8.474;2023-04-06T08:33:14;100816.38;;;9.64;43.59
6144;BME280;3103;49.492;8.474;2023-04-06T08:35:41;100823.16;;;9.48;42.37
6144;BME280;3103;49.492;8.474;2023-04-06T08:38:08;100813.16;;;9.92;42.46
6144;BME280;3103;49.492;8.474;2023-04-06T08:40:39;100821.69;;;10.49;41.13
6144;BME280;3103;49.492;8.474;2023-04-06T08:43:10;100828.91;;;10.90;41.44
6144;BME280;3103;49.492;8.474;2023-04-06T08:45:40;100823.56;;;11.02;39.76
6144;BME280;3103;49.492;8.474;2023-04-06T08:48:08;100818.03;;;10.74;39.23
6144;BME280;3103;49.492;8.474;2023-04-06T08:50:36;100821.47;;;11.04;39.43
6144;BME280;3103;49.492;8.474;2023-04-06T08:53:05;100820.97;;;10.95;39.24
6144;BME280;3103;49.492;8.474;2023-04-06T08:55:32;100809.03;;;11.38;37.94
6144;BME280;3103;49.492;8.474;2023-04-06T08:58:00;100815.63;;;11.30;37.42
6144;BME280;3103;49.492;8.474;2023-04-06T09:00:27;100810.56;;;10.76;40.07
6144;BME280;3103;49.492;8.474;2023-04-06T09:02:55;100812.09;;;11.07;39.53
6144;BME280;3103;49.492;8.474;2023-04-06T09:05:25;100808.38;;;11.19;39.21
6144;BME280;3103;49.492;8.474;2023-04-06T09:07:52;100799.06;;;11.74;38.85
6144;BME280;3103;49.492;8.474;2023-04-06T09:10:19;100794.56;;;11.91;37.93
6144;BME280;3103;49.492;8.474;2023-04-06T09:12:47;100805.69;;;11.95;37.58
6144;BME280;3103;49.492;8.474;2023-04-06T09:15:21;100805.84;;;11.88;36.89
6144;BME280;3103;49.492;8.474;2023-04-06T09:17:50;100806.66;;;10.60;38.82
6144;BME280;3103;49.492;8.474;2023-04-06T09:20:23;100810.22;;;10.72;39.19
6144;BME280;3103;49.492;8.474;2023-04-06T09:22:55;100809.28;;;11.37;37.70
6144;BME280;3103;49.492;8.474;2023-04-06T09:25:23;100807.44;;;12.01;37.11
6144;BME280;3103;49.492;8.474;2023-04-06T09:27:59;100810.44;;;12.33;36.83
6144;BME280;3103;49.492;8.474;2023-04-06T09:30:26;100802.97;;;11.43;37.17
6144;BME280;3103;49.492;8.474;2023-04-06T09:32:57;100798.94;;;12.09;36.57
6144;BME280;3103;49.492;8.474;2023-04-06T09:35:25;100806.13;;;12.03;36.96
6144;BME280;3103;49.492;8.474;2023-04-06T09:37:53;100803.06;;;12.11;37.76
6144;BME280;3103;49.492;8.474;2023-04-06T09:40:20;100803.28;;;12.10;37.42
6144;BME280;3103;49.492;8.474;2023-04-06T09:42:50;100809.38;;;12.34;37.87
6144;BME280;3103;49.492;8.474;2023-04-06T09:45:19;100799.38;;;12.63;36.54
6144;BME280;3103;49.492;8.474;2023-04-06T09:47:47;100794.81;;;12.63;35.83
6144;BME280;3103;49.492;8.474;2023-04-06T09:50:15;100798.25;;;12.92;36.61
6144;BME280;3103;49.492;8.474;2023-04-06T09:52:47;100801.19;;;12.74;35.62
6144;BME280;3103;49.492;8.474;2023-04-06T09:55:42;100797.44;;;12.75;36.73
6144;BME280;3103;49.492;8.474;2023-04-06T09:58:19;100794.41;;;12.88;35.22
6144;BME280;3103;49.492;8.474;2023-04-06T10:01:13;100790.88;;;12.09;35.44
6144;BME280;3103;49.492;8.474;2023-04-06T10:03:52;100783.16;;;11.60;36.73
6144;BME280;3103;49.492;8.474;2023-04-06T10:06:22;100788.94;;;11.93;36.91
6144;BME280;3103;49.492;8.474;2023-04-06T10:08:52;100790.72;;;12.61;37.33
6144;BME280;3103;49.492;8.474;2023-04-06T10:11:22;100781.34;;;12.97;35.40
6144;BME280;3103;49.492;8.474;2023-04-06T10:13:49;100783.63;;;12.55;36.03
6144;BME280;3103;49.492;8.474;2023-04-06T10:16:17;100785.59;;;12.76;34.34
6144;BME280;3103;49.492;8.474;2023-04-06T10:18:46;100779.09;;;11.58;36.34
6144;BME280;3103;49.492;8.474;2023-04-06T10:21:21;100783.06;;;12.24;37.43
6144;BME280;3103;49.492;8.474;2023-04-06T10:24:00;100778.25;;;12.71;34.31
6144;BME280;3103;49.492;8.474;2023-04-06T10:26:28;100769.34;;;12.71;34.11
6144;BME280;3103;49.492;8.474;2023-04-06T10:28:55;100780.19;;;13.10;33.92
6144;BME280;3103;49.492;8.474;2023-04-06T10:31:25;100783.06;;;12.86;34.38
6144;BME280;3103;49.492;8.474;2023-04-06T10:33:55;100770.22;;;12.76;33.55
6144;BME280;3103;49.492;8.474;2023-04-06T10:36:24;100782.69;;;12.32;33.99
6144;BME280;3103;49.492;8.474;2023-04-06T10:39:00;100775.88;;;12.13;33.93
6144;BME280;3103;49.492;8.474;2023-04-06T10:41:44;100776.75;;;12.47;34.11
6144;BME280;3103;49.492;8.474;2023-04-06T10:44:22;100778.56;;;12.75;33.22
6144;BME280;3103;49.492;8.474;2023-04-06T10:46:56;100772.34;;;13.25;34.14
6144;BME280;3103;49.492;8.474;2023-04-06T10:49:24;100764.63;;;13.33;34.02
6144;BME280;3103;49.492;8.474;2023-04-06T10:51:54;100766.03;;;13.02;32.83
6144;BME280;3103;49.492;8.474;2023-04-06T10:54:21;100755.75;;;12.66;33.81
6144;BME280;3103;49.492;8.474;2023-04-06T10:56:50;100754.06;;;13.32;34.49
6144;BME280;3103;49.492;8.474;2023-04-06T10:59:20;100745.63;;;12.90;32.69
6144;BME280;3103;49.492;8.474;2023-04-06T11:01:48;100756.81;;;12.48;32.74
6144;BME280;3103;49.492;8.474;2023-04-06T11:04:19;100743.78;;;12.57;33.18
6144;BME280;3103;49.492;8.474;2023-04-06T11:06:47;100753.81;;;12.78;32.58
6144;BME280;3103;49.492;8.474;2023-04-06T11:09:28;100748.63;;;12.93;32.20
6144;BME280;3103;49.492;8.474;2023-04-06T11:11:56;100735.69;;;13.29;32.89
6144;BME280;3103;49.492;8.474;2023-04-06T11:14:23;100738.38;;;13.29;31.57
6144;BME280;3103;49.492;8.474;2023-04-06T11:16:50;100736.63;;;13.01;31.19
6144;BME280;3103;49.492;8.474;2023-04-06T11:19:17;100726.28;;;13.31;31.63
6144;BME280;3103;49.492;8.474;2023-04-06T11:21:47;100732.66;;;13.08;31.47
6144;BME280;3103;49.492;8.474;2023-04-06T11:24:19;100725.31;;;13.21;31.69
6144;BME280;3103;49.492;8.474;2023-04-06T11:26:48;100727.75;;;13.22;31.96
6144;BME280;3103;49.492;8.474;2023-04-06T11:29:21;100715.44;;;12.71;31.63
6144;BME280;3103;49.492;8.474;2023-04-06T11:31:50;100719.31;;;12.80;33.04
6144;BME280;3103;49.492;8.474;2023-04-06T11:34:22;100708.41;;;12.70;31.27
6144;BME280;3103;49.492;8.474;2023-04-06T11:37:03;100715.47;;;12.93;31.25
6144;BME280;3103;49.492;8.474;2023-04-06T11:39:41;100710.28;;;13.69;31.56
6144;BME280;3103;49.492;8.474;2023-04-06T11:42:08;100706.38;;;13.59;29.23
6144;BME280;3103;49.492;8.474;2023-04-06T11:44:37;100700.69;;;13.83;30.06
6144;BME280;3103;49.492;8.474;2023-04-06T11:47:10;100702.75;;;13.98;30.45
6144;BME280;3103;49.492;8.474;2023-04-06T11:49:39;100701.09;;;13.70;28.30
6144;BME280;3103;49.492;8.474;2023-04-06T11:52:26;100696.38;;;13.82;28.64
6144;BME280;3103;49.492;8.474;2023-04-06T11:54:54;100684.78;;;13.59;29.53
6144;BME280;3103;49.492;8.474;2023-04-06T11:57:23;100694.16;;;13.79;29.84
6144;BME280;3103;49.492;8.474;2023-04-06T11:59:55;100692.47;;;13.73;28.15
6144;BME280;3103;49.492;8.474;2023-04-06T12:02:21;100684.13;;;14.01;28.89
6144;BME280;3103;49.492;8.474;2023-04-06T12:04:48;100684.09;;;14.28;28.39
6144;BME280;3103;49.492;8.474;2023-04-06T12:07:15;100685.94;;;14.22;28.33
6144;BME280;3103;49.492;8.474;2023-04-06T12:09:42;100684.44;;;14.37;28.26
6144;BME280;3103;49.492;8.474;2023-04-06T12:12:09;100683.72;;;14.14;28.88
6144;BME280;3103;49.492;8.474;2023-04-06T12:14:36;100680.78;;;14.21;29.10
6144;BME280;3103;49.492;8.474;2023-04-06T12:17:03;100683.81;;;14.24;29.23
6144;BME280;3103;49.492;8.474;2023-04-06T12:19:29;100680.22;;;14.19;28.70
6144;BME280;3103;49.492;8.474;2023-04-06T12:21:57;100676.25;;;13.94;28.65
6144;BME280;3103;49.492;8.474;2023-04-06T12:24:24;100671.25;;;14.08;29.02
6144;BME280;3103;49.492;8.474;2023-04-06T12:26:51;100674.53;;;14.15;29.71
6144;BME280;3103;49.492;8.474;2023-04-06T12:29:32;100665.47;;;13.73;30.13
6144;BME280;3103;49.492;8.474;2023-04-06T12:31:59;100669.91;;;13.57;29.25
6144;BME280;3103;49.492;8.474;2023-04-06T12:34:28;100664.47;;;13.52;28.67
6144;BME280;3103;49.492;8.474;2023-04-06T12:36:54;100663.50;;;13.90;29.73
6144;BME280;3103;49.492;8.474;2023-04-06T12:39:22;100667.88;;;13.96;28.56
6144;BME280;3103;49.492;8.474;2023-04-06T12:41:49;100659.16;;;13.89;28.99
6144;BME280;3103;49.492;8.474;2023-04-06T12:44:15;100660.72;;;14.12;28.57
6144;BME280;3103;49.492;8.474;2023-04-06T12:46:42;100657.16;;;14.38;27.79
6144;BME280;3103;49.492;8.474;2023-04-06T12:49:10;100653.13;;;14.09;27.28
6144;BME280;3103;49.492;8.474;2023-04-06T12:51:36;100659.38;;;14.14;29.37
6144;BME280;3103;49.492;8.474;2023-04-06T12:54:03;100646.00;;;14.30;28.38
6144;BME280;3103;49.492;8.474;2023-04-06T12:56:30;100654.09;;;14.30;28.47
6144;BME280;3103;49.492;8.474;2023-04-06T12:58:57;100646.56;;;14.32;27.54
6144;BME280;3103;49.492;8.474;2023-04-06T13:01:24;100638.34;;;14.21;28.04
6144;BME280;3103;49.492;8.474;2023-04-06T13:03:52;100645.44;;;14.27;28.10
6144;BME280;3103;49.492;8.474;2023-04-06T13:06:18;100638.31;;;14.16;28.62
6144;BME280;3103;49.492;8.474;2023-04-06T13:08:45;100647.63;;;14.31;28.08
6144;BME280;3103;49.492;8.474;2023-04-06T13:11:13;100636.09;;;14.40;27.44
6144;BME280;3103;49.492;8.474;2023-04-06T13:13:41;100633.28;;;14.62;28.52
6144;BME280;3103;49.492;8.474;2023-04-06T13:16:08;100634.59;;;14.54;27.56
6144;BME280;3103;49.492;8.474;2023-04-06T13:18:35;100624.31;;;14.57;27.54
6144;BME280;3103;49.492;8.474;2023-04-06T13:21:06;100618.94;;;14.62;27.92
6144;BME280;3103;49.492;8.474;2023-04-06T13:23:34;100630.53;;;14.52;27.51
6144;BME280;3103;49.492;8.474;2023-04-06T13:26:04;100623.75;;;14.17;27.33
6144;BME280;3103;49.492;8.474;2023-04-06T13:28:32;100630.50;;;14.20;27.92